Onslow, IA (52321)

4:40 PM CDT on August 29, 2014 (GMT -0500)
OLIN | Change Station
CLOSE
Current Station
Personal Weather Station
Location: Olin, IA
Elevation: 801 ft
Nearby Weather Stations

Elev 801 ft 42.02 °N, 91.13 °W | Updated 4 seconds ago

Clear
Clear
84.6 °F
Feels Like 92 °F
N
11.5
Wind Variable Wind from South
Gusts 11.5 mph

Today
High -- | Low -- °F
--% Chance of Precip.
Yesterday
High -- | Low -- °F
Precip. -- in
6:26 AM 7:42 PM
Waxing Crescent, 16% visible
Pressure 29.81 in
Visibility 10.0 miles
Clouds Few 4300 ft
Few 4900 ft
Heat Index 92 °F
Dew Point 74 °F
Humidity 71%
Rainfall 0.00 in
Snow Depth Not available.
UV 2.3 out of 12
Pollen 7.60 out of 12
Air Quality Not available.
Flu Activity Not available.
METAR KMXO 292115Z AUTO 17012KT 10SM FEW043 FEW049 30/22 A2981 RMK AO2

More Conditions Fewer Conditions

Pressure 29.81 in
Visibility 10.0 miles
Clouds Few 4300 ft
Few 4900 ft
Heat Index 92 °F
Dew Point 74 °F
Humidity 71%
Rainfall 0.00 in
Snow Depth Not available.
UV 2.3 out of 12
Pollen 7.60 out of 12
Air Quality Not available.
Flu Activity Not available.
METAR KMXO 292115Z AUTO 17012KT 10SM FEW043 FEW049 30/22 A2981 RMK AO2

More Conditions Fewer Conditions

10-Day Weather Forecast

Almanac

Astronomy

Aug. 29, 2014 Rise Set
Actual Time 6:26 AM CDT 7:42 PM CDT
Civil Twilight 5:57 AM CDT 8:11 PM CDT
Nautical Twilight 5:22 AM CDT 8:46 PM CDT
Astronomical Twilight 4:45 AM CDT 9:22 PM CDT
Moon 10:20 AM CDT 9:35 PM CDT
Length of Visible Light 14h 14m
Length of Day
13h 16m
Tomorrow will be 2m 42s shorter.
Waxing Crescent, 16% of the Moon is Illuminated
Today
Waxing Crescent
Sep 2
First Quarter
Sep 8
Full
Sep 15
Last Quarter
Sep 24
New

Today's Extremes

State Highs State Lows

Community

WunderPhotos

Upload Photos

1,748,349 photos uploaded!

Nearby

Snow Depth

Station Depth Elevation
No new snow has been reported.

Earthquake Activity

City Distance Mag. Time & Date
No recent earthquake activity has been reported nearby.
Minimum magnitude displayed is 2.5.

Coastal Water Temperatures

Place Temperature
No Stations Reporting

Nearby Weather Stations